createdAt,value
2018-04-16T00:01:32.759Z,4.93
2018-04-16T00:04:02.061Z,4.90
2018-04-16T00:06:29.633Z,5.40
2018-04-16T00:08:57.209Z,4.40
2018-04-16T00:11:29.879Z,5.17
2018-04-16T00:14:01.162Z,5.80
2018-04-16T00:16:29.552Z,5.57
2018-04-16T00:18:58.254Z,5.43
2018-04-16T00:21:27.744Z,5.40
2018-04-16T00:24:01.184Z,5.33
2018-04-16T00:26:37.581Z,5.13
2018-04-16T00:29:10.675Z,5.93
2018-04-16T00:31:48.312Z,5.30
2018-04-16T00:34:28.751Z,5.70
2018-04-16T00:37:03.666Z,5.80
2018-04-16T00:39:38.678Z,6.43
2018-04-16T00:42:14.434Z,5.47
2018-04-16T00:44:47.550Z,4.60
2018-04-16T00:47:23.874Z,5.23
2018-04-16T00:49:58.095Z,5.00
2018-04-16T00:55:55.841Z,5.73
2018-04-16T00:58:29.276Z,4.93
2018-04-16T01:01:02.825Z,5.23
2018-04-16T01:03:36.456Z,6.00
2018-04-16T01:06:11.388Z,5.20
2018-04-16T01:09:00.307Z,6.03
2018-04-16T01:11:33.762Z,5.47
2018-04-16T01:17:02.629Z,5.43
2018-04-16T01:19:37.585Z,5.13
2018-04-16T01:22:12.999Z,5.17
2018-04-16T01:24:46.206Z,4.50
2018-04-16T01:27:19.456Z,4.97
2018-04-16T01:29:54.684Z,6.07
2018-04-16T01:32:28.131Z,5.13
2018-04-16T01:35:05.567Z,5.33
2018-04-16T01:37:38.641Z,4.60
2018-04-16T01:40:11.790Z,5.37
2018-04-16T01:42:45.025Z,6.23
2018-04-16T01:45:33.098Z,5.33
2018-04-16T01:48:06.123Z,5.67
2018-04-16T01:50:46.379Z,5.20
2018-04-16T01:53:21.159Z,5.70
2018-04-16T01:55:54.302Z,5.67
2018-04-16T01:58:27.388Z,6.23
2018-04-16T02:01:00.554Z,5.93
2018-04-16T02:03:34.983Z,5.90
2018-04-16T02:06:08.208Z,5.70
2018-04-16T02:08:41.342Z,5.83
2018-04-16T02:11:15.168Z,5.20
2018-04-16T02:13:48.249Z,4.90
2018-04-16T02:16:21.471Z,5.60
2018-04-16T02:18:58.411Z,5.47
2018-04-16T02:21:34.361Z,5.03
2018-04-16T02:24:08.514Z,5.07
2018-04-16T02:26:44.556Z,5.70
2018-04-16T02:29:19.800Z,4.67
2018-04-16T02:31:56.400Z,5.53
2018-04-16T02:34:32.708Z,5.73
2018-04-16T02:37:07.362Z,5.30
2018-04-16T02:39:40.754Z,5.23
2018-04-16T02:42:26.812Z,5.53
2018-04-16T02:44:59.974Z,5.70
2018-04-16T02:47:33.122Z,5.57
2018-04-16T02:50:09.041Z,7.17
2018-04-16T02:52:43.667Z,5.90
2018-04-16T02:55:16.716Z,6.00
2018-04-16T02:57:53.152Z,5.57
2018-04-16T03:00:29.996Z,5.47
2018-04-16T03:03:04.800Z,5.20
2018-04-16T03:05:39.657Z,5.00
2018-04-16T03:08:16.964Z,4.83
2018-04-16T03:10:52.732Z,5.77
2018-04-16T03:13:26.030Z,4.60
2018-04-16T03:16:00.440Z,5.30
2018-04-16T03:18:36.720Z,4.97
2018-04-16T03:21:11.445Z,4.93
2018-04-16T03:23:46.878Z,5.57
2018-04-16T03:26:28.869Z,5.27
2018-04-16T03:29:04.504Z,5.60
2018-04-16T03:31:40.317Z,5.23
2018-04-16T03:34:17.593Z,4.17
2018-04-16T03:36:52.044Z,4.23
2018-04-16T03:39:28.709Z,4.53
2018-04-16T03:42:05.170Z,4.17
2018-04-16T03:44:41.483Z,5.20
2018-04-16T03:47:18.607Z,4.27
2018-04-16T03:49:53.695Z,4.83
2018-04-16T03:52:28.147Z,4.33
2018-04-16T03:54:55.686Z,4.57
2018-04-16T03:57:24.056Z,4.13
2018-04-16T03:59:52.895Z,4.40
2018-04-16T04:02:26.085Z,5.10
2018-04-16T04:04:53.841Z,5.10
2018-04-16T04:07:22.434Z,4.63
2018-04-16T04:09:52.822Z,4.40
2018-04-16T04:12:21.195Z,4.97
2018-04-16T04:14:51.699Z,4.43
2018-04-16T04:17:21.235Z,4.33
2018-04-16T04:19:49.529Z,5.07
2018-04-16T04:22:17.398Z,4.80
2018-04-16T04:24:56.728Z,4.20
2018-04-16T04:27:36.019Z,5.27
2018-04-16T04:30:22.168Z,4.13
2018-04-16T04:32:51.817Z,4.43
2018-04-16T04:35:20.044Z,4.60
2018-04-16T04:37:47.667Z,4.40
2018-04-16T04:40:18.972Z,5.20
2018-04-16T04:42:49.033Z,4.33
2018-04-16T04:45:17.563Z,4.73
2018-04-16T04:47:45.116Z,4.50
2018-04-16T04:50:12.853Z,4.70
2018-04-16T04:52:46.288Z,4.23
2018-04-16T04:55:18.143Z,4.47
2018-04-16T04:57:45.798Z,5.07
2018-04-16T05:00:13.350Z,4.83
2018-04-16T05:02:41.532Z,4.80
2018-04-16T05:05:11.132Z,4.63
2018-04-16T05:07:43.211Z,4.77
2018-04-16T05:10:17.894Z,4.37
2018-04-16T05:13:17.206Z,4.50
2018-04-16T05:15:46.365Z,4.07
2018-04-16T05:18:14.256Z,4.43
2018-04-16T05:20:47.066Z,4.47
2018-04-16T05:23:17.917Z,4.37
2018-04-16T05:25:49.667Z,4.47
2018-04-16T05:31:39.509Z,4.40
2018-04-16T05:34:11.420Z,5.70
2018-04-16T05:36:39.493Z,6.00
2018-04-16T05:39:07.461Z,5.47
2018-04-16T05:41:35.279Z,5.60
2018-04-16T05:44:03.597Z,5.53
2018-04-16T05:46:31.138Z,5.10
2018-04-16T05:48:59.449Z,4.70
2018-04-16T05:51:27.238Z,5.20
2018-04-16T05:53:55.618Z,5.73
2018-04-16T05:56:27.970Z,5.20
2018-04-16T05:58:57.230Z,5.33
2018-04-16T06:01:24.739Z,4.50
2018-04-16T06:03:52.281Z,5.03
2018-04-16T06:06:20.162Z,5.27
2018-04-16T06:08:51.853Z,4.87
2018-04-16T06:11:20.371Z,5.40
2018-04-16T06:13:50.953Z,5.10
2018-04-16T06:16:18.790Z,5.27
2018-04-16T06:18:47.173Z,4.93
2018-04-16T06:21:17.206Z,4.90
2018-04-16T06:23:44.751Z,4.57
2018-04-16T06:26:12.301Z,4.57
2018-04-16T06:31:35.578Z,4.53
2018-04-16T06:34:03.139Z,4.67
2018-04-16T06:36:30.685Z,5.23
2018-04-16T06:39:00.582Z,5.43
2018-04-16T06:41:32.080Z,5.00
2018-04-16T06:44:02.277Z,5.43
2018-04-16T06:46:30.252Z,4.20
2018-04-16T06:48:59.176Z,4.50
2018-04-16T06:51:35.833Z,4.63
2018-04-16T06:54:05.846Z,5.07
2018-04-16T06:56:34.863Z,4.93
2018-04-16T06:59:02.745Z,4.27
2018-04-16T07:01:32.033Z,4.20
2018-04-16T07:04:02.685Z,4.40
2018-04-16T07:06:34.427Z,5.00
2018-04-16T07:09:02.986Z,4.80
2018-04-16T07:11:30.805Z,4.10
2018-04-16T07:14:00.581Z,5.70
2018-04-16T07:16:28.311Z,4.80
2018-04-16T07:18:57.074Z,4.63
2018-04-16T07:21:25.435Z,4.47
2018-04-16T07:23:53.581Z,4.53
2018-04-16T07:26:21.910Z,4.37
2018-04-16T07:28:50.521Z,5.17
2018-04-16T07:31:18.825Z,4.40
2018-04-16T07:33:46.377Z,4.77
2018-04-16T07:36:18.243Z,4.73
2018-04-16T07:38:51.286Z,4.93
2018-04-16T07:41:23.290Z,4.40
2018-04-16T07:43:51.578Z,4.40
2018-04-16T07:46:19.864Z,4.60
2018-04-16T07:48:47.748Z,4.50
2018-04-16T07:51:17.672Z,4.17
2018-04-16T07:53:50.312Z,4.37
2018-04-16T07:56:19.211Z,4.53
2018-04-16T07:58:47.617Z,4.70
2018-04-16T08:01:15.845Z,4.33
2018-04-16T08:03:46.741Z,4.07
2018-04-16T08:06:15.354Z,4.37
2018-04-16T08:08:44.388Z,4.43
2018-04-16T08:11:13.262Z,4.97
2018-04-16T08:13:41.336Z,4.77
2018-04-16T08:16:09.494Z,5.03
2018-04-16T08:18:37.055Z,5.10
2018-04-16T08:21:04.613Z,5.40
2018-04-16T08:23:32.159Z,5.57
2018-04-16T08:26:07.461Z,4.77
2018-04-16T08:28:37.900Z,4.80
2018-04-16T08:31:06.335Z,4.77
2018-04-16T08:33:35.001Z,5.00
2018-04-16T08:36:03.523Z,4.90
2018-04-16T08:38:34.748Z,4.57
2018-04-16T08:41:03.216Z,4.47
2018-04-16T08:43:30.761Z,4.30
2018-04-16T08:46:12.381Z,4.80
2018-04-16T08:48:41.389Z,4.90
2018-04-16T08:51:09.325Z,4.77
2018-04-16T08:53:39.090Z,4.73
2018-04-16T08:56:06.659Z,4.67
2018-04-16T08:58:34.218Z,4.97
2018-04-16T09:01:01.817Z,4.43
2018-04-16T09:03:32.070Z,5.03
2018-04-16T09:06:05.402Z,4.50
2018-04-16T09:08:41.118Z,4.77
2018-04-16T09:11:14.086Z,4.77
2018-04-16T09:13:42.835Z,4.30
2018-04-16T09:16:11.650Z,4.80
2018-04-16T09:18:39.941Z,4.10
2018-04-16T09:21:08.385Z,4.27
2018-04-16T09:23:35.942Z,3.97
2018-04-16T09:26:05.927Z,4.20
2018-04-16T09:28:34.474Z,4.10
2018-04-16T09:31:06.109Z,5.00
2018-04-16T09:33:39.462Z,4.40
2018-04-16T09:36:07.981Z,4.17
2018-04-16T09:38:35.521Z,4.27
2018-04-16T09:41:03.706Z,4.50
2018-04-16T09:43:31.278Z,4.33
2018-04-16T09:45:59.231Z,4.43
2018-04-16T09:48:26.781Z,4.23
2018-04-16T09:50:55.630Z,4.40
2018-04-16T09:53:30.807Z,4.57
2018-04-16T09:56:04.433Z,4.20
2018-04-16T09:58:32.346Z,4.23
2018-04-16T10:01:00.433Z,3.63
2018-04-16T10:03:28.276Z,3.87
2018-04-16T10:05:56.425Z,4.23
2018-04-16T10:08:24.456Z,4.50
2018-04-16T10:10:52.494Z,3.93
2018-04-16T10:13:21.009Z,3.80
2018-04-16T10:15:49.250Z,3.77
2018-04-16T10:18:18.213Z,3.97
2018-04-16T10:20:45.768Z,4.13
2018-04-16T10:23:13.317Z,4.20
2018-04-16T10:25:42.469Z,4.00
2018-04-16T10:28:11.476Z,3.60
2018-04-16T10:30:39.038Z,4.50
2018-04-16T10:33:07.275Z,3.67
2018-04-16T10:35:37.378Z,4.00
2018-04-16T10:38:09.676Z,3.73
2018-04-16T10:40:37.253Z,3.40
2018-04-16T10:43:04.796Z,4.13
2018-04-16T10:45:33.458Z,4.33
2018-04-16T10:48:14.581Z,3.83
2018-04-16T10:50:42.533Z,3.97
2018-04-16T10:53:10.480Z,3.90
2018-04-16T10:55:38.096Z,3.77
2018-04-16T10:58:05.614Z,3.43
2018-04-16T11:00:37.882Z,3.23
2018-04-16T11:03:19.563Z,3.33
2018-04-16T11:05:47.160Z,3.13
2018-04-16T11:08:14.914Z,2.83
2018-04-16T11:10:46.248Z,3.20
2018-04-16T11:15:49.889Z,3.80
2018-04-16T11:18:17.881Z,3.00
2018-04-16T11:20:45.435Z,3.23
2018-04-16T11:23:17.461Z,3.23
2018-04-16T11:25:46.498Z,3.17
2018-04-16T11:28:16.697Z,3.00
2018-04-16T11:30:45.173Z,3.43
2018-04-16T11:33:12.924Z,3.10
2018-04-16T11:35:41.030Z,3.97
2018-04-16T11:38:08.859Z,3.20
2018-04-16T11:40:36.408Z,3.67
2018-04-16T11:43:05.145Z,2.93
2018-04-16T11:45:32.710Z,2.87
2018-04-16T11:48:00.495Z,3.03
2018-04-16T11:50:50.287Z,2.43
2018-04-16T11:53:17.881Z,2.70
2018-04-16T11:55:46.558Z,2.20
2018-04-16T11:58:14.568Z,2.30
2018-04-16T12:00:43.045Z,2.10
2018-04-16T12:03:11.437Z,2.20
2018-04-16T12:05:40.952Z,3.10
2018-04-16T12:08:12.371Z,2.70
2018-04-16T12:10:39.938Z,2.73
2018-04-16T12:13:08.188Z,2.63
2018-04-16T12:15:38.216Z,2.80
2018-04-16T12:18:08.766Z,3.27
2018-04-16T12:20:37.477Z,2.90
2018-04-16T12:23:05.039Z,2.80
2018-04-16T12:25:33.008Z,2.97
2018-04-16T12:28:00.633Z,3.23
2018-04-16T12:30:35.500Z,3.13
2018-04-16T12:33:05.141Z,2.60
2018-04-16T12:35:33.455Z,2.57
2018-04-16T12:38:01.011Z,3.20
2018-04-16T12:40:28.825Z,3.10
2018-04-16T12:42:57.145Z,3.53
2018-04-16T12:45:24.708Z,2.70
2018-04-16T12:47:54.602Z,2.80
2018-04-16T12:50:22.796Z,2.97
2018-04-16T12:52:54.678Z,3.10
2018-04-16T12:55:26.217Z,3.70
2018-04-16T12:57:54.374Z,3.13
2018-04-16T13:00:22.706Z,2.80
2018-04-16T13:02:53.276Z,3.03
2018-04-16T13:05:42.387Z,3.00
2018-04-16T13:08:10.675Z,3.13
2018-04-16T13:10:38.214Z,2.80
2018-04-16T13:13:06.983Z,2.90
2018-04-16T13:15:34.841Z,2.87
2018-04-16T13:18:03.428Z,2.80
2018-04-16T13:20:30.989Z,2.70
2018-04-16T13:23:00.733Z,2.50
2018-04-16T13:25:28.281Z,2.40
2018-04-16T13:27:56.685Z,2.90
2018-04-16T13:30:25.546Z,3.00
2018-04-16T13:32:54.022Z,2.70
2018-04-16T13:35:23.638Z,2.60
2018-04-16T13:37:53.356Z,3.27
2018-04-16T13:40:20.928Z,2.60
2018-04-16T13:42:50.358Z,2.60
2018-04-16T13:45:19.433Z,2.53
2018-04-16T13:47:48.015Z,2.73
2018-04-16T13:50:15.615Z,2.33
2018-04-16T13:52:44.988Z,2.83
2018-04-16T13:55:15.725Z,2.63
2018-04-16T13:57:47.135Z,2.83
2018-04-16T14:00:16.000Z,2.40
2018-04-16T14:02:43.545Z,2.80
2018-04-16T14:05:11.377Z,2.60
2018-04-16T14:07:39.494Z,3.10
2018-04-16T14:10:11.997Z,2.60
2018-04-16T14:12:45.006Z,2.63
2018-04-16T14:15:12.832Z,2.60
2018-04-16T14:17:40.554Z,3.03
2018-04-16T14:20:08.103Z,2.47
2018-04-16T14:22:56.947Z,2.90
2018-04-16T14:25:24.499Z,3.10
2018-04-16T14:27:54.350Z,2.80
2018-04-16T14:30:23.587Z,2.87
2018-04-16T14:32:51.148Z,2.97
2018-04-16T14:35:21.257Z,2.80
2018-04-16T14:41:10.387Z,2.87
2018-04-16T14:43:41.350Z,3.17
2018-04-16T14:46:11.200Z,3.00
2018-04-16T14:48:40.329Z,3.10
2018-04-16T14:51:08.100Z,3.03
2018-04-16T14:53:36.029Z,2.90
2018-04-16T14:56:04.760Z,3.17
2018-04-16T14:58:32.630Z,3.20
2018-04-16T15:01:00.687Z,2.93
2018-04-16T15:03:28.377Z,3.03
2018-04-16T15:06:01.694Z,3.00
2018-04-16T15:08:30.548Z,2.97
2018-04-16T15:10:58.096Z,2.80
2018-04-16T15:13:25.646Z,3.10
2018-04-16T15:15:54.572Z,2.97
2018-04-16T15:18:25.344Z,3.10
2018-04-16T15:20:53.158Z,3.00
2018-04-16T15:23:21.148Z,3.20
2018-04-16T15:25:49.910Z,3.10
2018-04-16T15:28:26.345Z,3.30
2018-04-16T15:30:54.665Z,3.20
2018-04-16T15:33:22.739Z,3.30
2018-04-16T15:35:50.589Z,3.67
2018-04-16T15:38:18.858Z,3.17
2018-04-16T15:40:55.829Z,3.70
2018-04-16T15:43:24.553Z,3.30
2018-04-16T15:45:52.331Z,3.10
2018-04-16T15:48:20.862Z,2.93
2018-04-16T15:50:48.889Z,3.40
2018-04-16T15:53:27.218Z,3.20
2018-04-16T15:55:58.169Z,3.00
2018-04-16T15:58:26.893Z,3.13
2018-04-16T16:00:56.437Z,3.00
2018-04-16T16:03:24.398Z,2.97
2018-04-16T16:05:52.377Z,3.07
2018-04-16T16:11:02.914Z,3.30
2018-04-16T16:13:30.456Z,3.03
2018-04-16T16:15:58.840Z,2.87
2018-04-16T16:18:30.017Z,3.20
2018-04-16T16:20:57.596Z,2.93
2018-04-16T16:23:25.998Z,3.57
2018-04-16T16:25:54.673Z,3.20
2018-04-16T16:28:22.756Z,3.33
2018-04-16T16:30:53.121Z,3.07
2018-04-16T16:33:28.472Z,3.47
2018-04-16T16:35:58.165Z,3.17
2018-04-16T16:38:26.882Z,3.03
2018-04-16T16:40:56.001Z,2.80
2018-04-16T16:43:25.179Z,2.60
2018-04-16T16:45:56.433Z,3.00
2018-04-16T16:48:23.976Z,3.40
2018-04-16T16:50:51.532Z,2.90
2018-04-16T16:53:19.510Z,3.03
2018-04-16T16:55:47.868Z,2.87
2018-04-16T16:58:15.862Z,3.30
2018-04-16T17:00:43.440Z,3.30
2018-04-16T17:03:12.627Z,2.80
2018-04-16T17:05:45.737Z,3.00
2018-04-16T17:08:13.286Z,3.00
2018-04-16T17:10:41.805Z,3.37
2018-04-16T17:13:10.020Z,3.50
2018-04-16T17:15:40.435Z,2.83
2018-04-16T17:18:08.073Z,3.00
2018-04-16T17:20:36.394Z,2.93
2018-04-16T17:23:03.936Z,2.90
2018-04-16T17:25:34.630Z,3.40
2018-04-16T17:28:08.404Z,2.93
2018-04-16T17:30:36.771Z,3.13
2018-04-16T17:33:04.425Z,3.43
2018-04-16T17:35:38.084Z,3.07
2018-04-16T17:38:05.767Z,3.60
2018-04-16T17:40:34.019Z,3.67
2018-04-16T17:43:01.574Z,3.00
2018-04-16T17:45:30.352Z,3.53
2018-04-16T17:47:58.287Z,2.90
2018-04-16T17:50:26.339Z,2.90
2018-04-16T17:52:55.532Z,2.80
2018-04-16T17:55:24.548Z,3.03
2018-04-16T17:57:53.846Z,3.10
2018-04-16T18:00:27.165Z,3.10
2018-04-16T18:02:55.095Z,3.03
2018-04-16T18:05:23.284Z,3.23
2018-04-16T18:07:50.852Z,3.20
2018-04-16T18:10:18.448Z,3.10
2018-04-16T18:12:46.764Z,3.30
2018-04-16T18:15:14.327Z,3.00
2018-04-16T18:17:41.879Z,3.30
2018-04-16T18:20:09.571Z,3.80
2018-04-16T18:22:37.972Z,3.10
2018-04-16T18:25:10.206Z,4.07
2018-04-16T18:27:42.468Z,3.80
2018-04-16T18:30:16.418Z,3.27
2018-04-16T18:32:52.744Z,5.40
2018-04-16T18:35:25.635Z,5.20
2018-04-16T18:37:56.508Z,4.00
2018-04-16T18:40:32.168Z,4.00
2018-04-16T18:43:21.516Z,3.53
2018-04-16T18:45:49.092Z,3.67
2018-04-16T18:48:20.155Z,3.40
2018-04-16T18:50:47.834Z,2.90
2018-04-16T18:53:15.406Z,3.23
2018-04-16T18:55:42.988Z,3.40
2018-04-16T18:58:13.522Z,3.20
2018-04-16T19:00:41.631Z,3.50
2018-04-16T19:03:09.733Z,3.07
2018-04-16T19:05:37.795Z,3.70
2018-04-16T19:08:05.378Z,4.00
2018-04-16T19:10:32.924Z,3.80
2018-04-16T19:13:01.324Z,3.70
2018-04-16T19:15:29.999Z,4.03
2018-04-16T19:17:57.500Z,3.60
2018-04-16T19:20:30.715Z,3.43
2018-04-16T19:22:58.274Z,3.27
2018-04-16T19:25:26.046Z,3.30
2018-04-16T19:30:57.489Z,3.20
2018-04-16T19:33:31.490Z,3.10
2018-04-16T19:35:59.276Z,3.17
2018-04-16T19:38:30.063Z,3.37
2018-04-16T19:40:57.644Z,3.73
2018-04-16T19:43:25.551Z,3.43
2018-04-16T19:45:53.247Z,3.60
2018-04-16T19:48:20.860Z,3.80
2018-04-16T19:50:48.412Z,4.13
2018-04-16T19:53:16.422Z,4.10
2018-04-16T19:55:51.301Z,4.13
2018-04-16T19:58:22.018Z,4.43
2018-04-16T20:00:54.310Z,4.10
2018-04-16T20:03:29.646Z,4.40
2018-04-16T20:06:03.199Z,3.90
2018-04-16T20:08:34.648Z,3.77
2018-04-16T20:11:04.745Z,3.70
2018-04-16T20:13:33.426Z,3.60
2018-04-16T20:16:01.256Z,3.57
2018-04-16T20:18:29.874Z,3.30
2018-04-16T20:20:58.194Z,3.70
2018-04-16T20:23:29.154Z,3.40
2018-04-16T20:25:57.653Z,4.07
2018-04-16T20:28:26.156Z,4.00
2018-04-16T20:30:55.864Z,3.80
2018-04-16T20:33:25.397Z,3.67
2018-04-16T20:35:53.726Z,4.43
2018-04-16T20:38:21.286Z,4.50
2018-04-16T20:40:49.730Z,3.90
2018-04-16T20:43:17.293Z,4.33
2018-04-16T20:45:45.932Z,3.73
2018-04-16T20:48:13.490Z,3.83
2018-04-16T20:50:43.843Z,3.83
2018-04-16T20:53:17.426Z,4.30
2018-04-16T20:55:48.453Z,4.13
2018-04-16T20:58:20.284Z,4.50
2018-04-16T21:00:49.606Z,4.27
2018-04-16T21:03:17.992Z,4.10
2018-04-16T21:05:45.759Z,4.20
2018-04-16T21:08:14.268Z,3.87
2018-04-16T21:10:49.112Z,3.77
2018-04-16T21:13:23.398Z,3.80
2018-04-16T21:16:12.834Z,4.30
2018-04-16T21:18:40.625Z,3.73
2018-04-16T21:21:09.944Z,4.13
2018-04-16T21:23:45.494Z,4.83
2018-04-16T21:26:15.184Z,3.63
2018-04-16T21:28:44.562Z,3.90
2018-04-16T21:31:12.703Z,3.67
2018-04-16T21:33:42.828Z,3.77
2018-04-16T21:36:10.442Z,4.50
2018-04-16T21:38:39.650Z,4.20
2018-04-16T21:41:12.687Z,3.70
2018-04-16T21:43:46.780Z,4.00
2018-04-16T21:46:15.617Z,4.10
2018-04-16T21:48:43.590Z,3.53
2018-04-16T21:51:12.091Z,4.23
2018-04-16T21:53:40.733Z,4.17
2018-04-16T21:56:08.290Z,3.80
2018-04-16T21:58:41.151Z,4.23
2018-04-16T22:01:17.074Z,4.20
2018-04-16T22:03:50.165Z,4.37
2018-04-16T22:06:22.939Z,4.30
2018-04-16T22:08:53.119Z,4.77
2018-04-16T22:11:20.790Z,4.70
2018-04-16T22:13:51.682Z,5.00
2018-04-16T22:16:32.146Z,4.27
2018-04-16T22:19:01.563Z,5.27
2018-04-16T22:21:35.605Z,4.57
2018-04-16T22:24:04.067Z,4.13
2018-04-16T22:26:31.893Z,4.37
2018-04-16T22:29:05.894Z,4.37
2018-04-16T22:31:34.988Z,4.20
2018-04-16T22:34:03.330Z,4.87
2018-04-16T22:36:33.426Z,4.30
2018-04-16T22:39:02.041Z,4.43
2018-04-16T22:41:33.205Z,3.90
2018-04-16T22:44:01.335Z,4.30
2018-04-16T22:46:31.970Z,4.63
2018-04-16T22:49:00.178Z,4.47
2018-04-16T22:51:27.761Z,4.00
2018-04-16T22:53:55.780Z,3.73
2018-04-16T22:56:25.813Z,4.60
2018-04-16T22:58:55.118Z,4.17
2018-04-16T23:01:32.040Z,4.00
2018-04-16T23:04:00.426Z,3.97
2018-04-16T23:06:27.963Z,4.23
2018-04-16T23:09:01.616Z,3.80
2018-04-16T23:11:29.402Z,3.47
2018-04-16T23:14:04.104Z,3.70
2018-04-16T23:16:32.363Z,3.97
2018-04-16T23:19:00.621Z,3.77
2018-04-16T23:21:28.203Z,3.67
2018-04-16T23:23:55.771Z,3.87
2018-04-16T23:26:23.413Z,3.83
2018-04-16T23:28:51.006Z,3.80
2018-04-16T23:31:19.938Z,3.73
2018-04-16T23:33:51.668Z,3.80
2018-04-16T23:36:19.801Z,3.40
2018-04-16T23:38:47.916Z,3.40
2018-04-16T23:41:16.640Z,3.97
2018-04-16T23:43:45.270Z,3.47
2018-04-16T23:46:17.478Z,3.33
2018-04-16T23:48:45.816Z,3.50
2018-04-16T23:51:13.478Z,3.60
2018-04-16T23:53:41.854Z,3.30
2018-04-16T23:56:09.424Z,3.00
2018-04-16T23:58:36.982Z,3.30
